sensor_id;sensor_type;location;lat;lon;timestamp;P1;durP1;ratioP1;P2;durP2;ratioP2
48241;SDS011;34041;51.812;4.622;2022-09-03T00:00:20;4.55;;;1.98;;
48241;SDS011;34041;51.812;4.622;2022-09-03T00:03:28;3.63;;;1.60;;
48241;SDS011;34041;51.812;4.622;2022-09-03T00:06:31;4.28;;;1.67;;
48241;SDS011;34041;51.812;4.622;2022-09-03T00:09:35;4.70;;;1.88;;
48241;SDS011;34041;51.812;4.622;2022-09-03T00:12:39;3.28;;;1.70;;
48241;SDS011;34041;51.812;4.622;2022-09-03T00:15:40;5.30;;;1.73;;
48241;SDS011;34041;51.812;4.622;2022-09-03T00:18:45;6.88;;;1.70;;
48241;SDS011;34041;51.812;4.622;2022-09-03T00:21:48;4.63;;;1.90;;
48241;SDS011;34041;51.812;4.622;2022-09-03T00:24:50;4.22;;;1.50;;
48241;SDS011;34041;51.812;4.622;2022-09-03T00:27:52;2.88;;;1.88;;
48241;SDS011;34041;51.812;4.622;2022-09-03T00:30:58;2.85;;;1.73;;
48241;SDS011;34041;51.812;4.622;2022-09-03T00:34:05;4.15;;;2.20;;
48241;SDS011;34041;51.812;4.622;2022-09-03T00:37:08;3.33;;;1.88;;
48241;SDS011;34041;51.812;4.622;2022-09-03T00:40:15;3.53;;;1.70;;
48241;SDS011;34041;51.812;4.622;2022-09-03T00:46:41;4.28;;;1.60;;
48241;SDS011;34041;51.812;4.622;2022-09-03T00:53:01;4.90;;;1.67;;
48241;SDS011;34041;51.812;4.622;2022-09-03T00:56:12;6.50;;;1.63;;
48241;SDS011;34041;51.812;4.622;2022-09-03T00:59:22;4.18;;;1.88;;
48241;SDS011;34041;51.812;4.622;2022-09-03T01:12:03;4.05;;;2.00;;
48241;SDS011;34041;51.812;4.622;2022-09-03T01:18:27;6.35;;;2.42;;
48241;SDS011;34041;51.812;4.622;2022-09-03T01:21:44;4.35;;;1.95;;
48241;SDS011;34041;51.812;4.622;2022-09-03T01:31:01;4.32;;;2.10;;
48241;SDS011;34041;51.812;4.622;2022-09-03T01:35:04;3.53;;;1.92;;
48241;SDS011;34041;51.812;4.622;2022-09-03T02:00:15;3.90;;;1.80;;
48241;SDS011;34041;51.812;4.622;2022-09-03T02:02:59;5.63;;;1.85;;
48241;SDS011;34041;51.812;4.622;2022-09-03T02:06:00;3.35;;;2.10;;
48241;SDS011;34041;51.812;4.622;2022-09-03T02:09:02;2.75;;;1.55;;
48241;SDS011;34041;51.812;4.622;2022-09-03T02:12:10;3.33;;;1.80;;
48241;SDS011;34041;51.812;4.622;2022-09-03T02:15:15;3.58;;;1.77;;
48241;SDS011;34041;51.812;4.622;2022-09-03T02:18:17;5.65;;;1.95;;
48241;SDS011;34041;51.812;4.622;2022-09-03T02:21:19;5.13;;;2.03;;
48241;SDS011;34041;51.812;4.622;2022-09-03T02:24:19;5.25;;;2.30;;
48241;SDS011;34041;51.812;4.622;2022-09-03T02:27:20;3.07;;;2.00;;
48241;SDS011;34041;51.812;4.622;2022-09-03T02:30:20;4.85;;;2.00;;
48241;SDS011;34041;51.812;4.622;2022-09-03T02:33:20;5.13;;;2.13;;
48241;SDS011;34041;51.812;4.622;2022-09-03T02:36:24;5.38;;;2.22;;
48241;SDS011;34041;51.812;4.622;2022-09-03T02:39:24;3.17;;;2.25;;
48241;SDS011;34041;51.812;4.622;2022-09-03T02:42:27;3.00;;;1.77;;
48241;SDS011;34041;51.812;4.622;2022-09-03T02:45:28;3.90;;;2.20;;
48241;SDS011;34041;51.812;4.622;2022-09-03T02:48:28;4.97;;;2.50;;
48241;SDS011;34041;51.812;4.622;2022-09-03T02:51:36;4.60;;;1.75;;
48241;SDS011;34041;51.812;4.622;2022-09-03T02:54:37;3.88;;;2.35;;
48241;SDS011;34041;51.812;4.622;2022-09-03T02:57:40;5.03;;;2.28;;
48241;SDS011;34041;51.812;4.622;2022-09-03T03:00:41;6.43;;;2.00;;
48241;SDS011;34041;51.812;4.622;2022-09-03T03:03:41;5.90;;;2.47;;
48241;SDS011;34041;51.812;4.622;2022-09-03T03:06:41;3.50;;;2.10;;
48241;SDS011;34041;51.812;4.622;2022-09-03T03:09:41;3.27;;;2.10;;
48241;SDS011;34041;51.812;4.622;2022-09-03T03:12:42;3.80;;;2.17;;
48241;SDS011;34041;51.812;4.622;2022-09-03T03:15:42;4.37;;;2.27;;
48241;SDS011;34041;51.812;4.622;2022-09-03T03:18:43;4.40;;;2.08;;
48241;SDS011;34041;51.812;4.622;2022-09-03T03:21:46;4.68;;;2.20;;
48241;SDS011;34041;51.812;4.622;2022-09-03T03:24:46;3.63;;;2.27;;
48241;SDS011;34041;51.812;4.622;2022-09-03T03:27:49;4.13;;;1.90;;
48241;SDS011;34041;51.812;4.622;2022-09-03T03:30:49;5.70;;;1.90;;
48241;SDS011;34041;51.812;4.622;2022-09-03T03:36:52;4.47;;;2.10;;
48241;SDS011;34041;51.812;4.622;2022-09-03T03:39:52;3.00;;;2.00;;
48241;SDS011;34041;51.812;4.622;2022-09-03T03:42:52;3.73;;;2.27;;
48241;SDS011;34041;51.812;4.622;2022-09-03T03:45:56;4.40;;;3.20;;
48241;SDS011;34041;51.812;4.622;2022-09-03T03:48:57;3.75;;;1.73;;
48241;SDS011;34041;51.812;4.622;2022-09-03T03:51:58;4.82;;;2.15;;
48241;SDS011;34041;51.812;4.622;2022-09-03T03:54:58;2.57;;;1.87;;
48241;SDS011;34041;51.812;4.622;2022-09-03T03:57:58;3.38;;;2.15;;
48241;SDS011;34041;51.812;4.622;2022-09-03T04:01:05;4.78;;;2.78;;
48241;SDS011;34041;51.812;4.622;2022-09-03T04:04:06;3.35;;;2.63;;
48241;SDS011;34041;51.812;4.622;2022-09-03T04:07:06;5.27;;;2.97;;
48241;SDS011;34041;51.812;4.622;2022-09-03T04:10:07;4.22;;;1.92;;
48241;SDS011;34041;51.812;4.622;2022-09-03T04:13:08;8.45;;;3.05;;
48241;SDS011;34041;51.812;4.622;2022-09-03T04:16:09;3.73;;;2.13;;
48241;SDS011;34041;51.812;4.622;2022-09-03T04:19:10;4.15;;;2.42;;
48241;SDS011;34041;51.812;4.622;2022-09-03T04:22:10;3.70;;;2.10;;
48241;SDS011;34041;51.812;4.622;2022-09-03T04:25:11;4.70;;;2.33;;
48241;SDS011;34041;51.812;4.622;2022-09-03T04:28:11;7.50;;;2.20;;
48241;SDS011;34041;51.812;4.622;2022-09-03T04:31:13;8.20;;;2.28;;
48241;SDS011;34041;51.812;4.622;2022-09-03T04:34:14;3.28;;;2.53;;
48241;SDS011;34041;51.812;4.622;2022-09-03T04:37:14;7.45;;;2.63;;
48241;SDS011;34041;51.812;4.622;2022-09-03T04:40:18;3.88;;;1.70;;
48241;SDS011;34041;51.812;4.622;2022-09-03T04:43:18;6.23;;;2.23;;
48241;SDS011;34041;51.812;4.622;2022-09-03T04:46:19;3.67;;;2.13;;
48241;SDS011;34041;51.812;4.622;2022-09-03T04:49:20;3.20;;;1.73;;
48241;SDS011;34041;51.812;4.622;2022-09-03T04:52:20;3.97;;;2.07;;
48241;SDS011;34041;51.812;4.622;2022-09-03T04:55:21;7.75;;;2.28;;
48241;SDS011;34041;51.812;4.622;2022-09-03T04:58:21;3.25;;;2.17;;
48241;SDS011;34041;51.812;4.622;2022-09-03T05:01:23;3.63;;;2.50;;
48241;SDS011;34041;51.812;4.622;2022-09-03T05:04:23;3.97;;;2.17;;
48241;SDS011;34041;51.812;4.622;2022-09-03T05:07:23;6.97;;;2.47;;
48241;SDS011;34041;51.812;4.622;2022-09-03T05:10:26;4.88;;;1.92;;
48241;SDS011;34041;51.812;4.622;2022-09-03T05:13:27;3.50;;;1.90;;
48241;SDS011;34041;51.812;4.622;2022-09-03T05:16:27;4.93;;;1.83;;
48241;SDS011;34041;51.812;4.622;2022-09-03T05:19:29;3.72;;;2.25;;
48241;SDS011;34041;51.812;4.622;2022-09-03T05:22:30;4.97;;;1.92;;
48241;SDS011;34041;51.812;4.622;2022-09-03T05:25:31;5.32;;;2.00;;
48241;SDS011;34041;51.812;4.622;2022-09-03T05:28:31;6.32;;;1.80;;
48241;SDS011;34041;51.812;4.622;2022-09-03T05:31:32;5.07;;;2.20;;
48241;SDS011;34041;51.812;4.622;2022-09-03T05:34:32;4.50;;;2.00;;
48241;SDS011;34041;51.812;4.622;2022-09-03T05:37:32;4.17;;;2.07;;
48241;SDS011;34041;51.812;4.622;2022-09-03T05:40:33;2.90;;;1.80;;
48241;SDS011;34041;51.812;4.622;2022-09-03T05:43:33;3.97;;;2.47;;
48241;SDS011;34041;51.812;4.622;2022-09-03T05:46:34;8.32;;;2.40;;
48241;SDS011;34041;51.812;4.622;2022-09-03T05:49:35;6.38;;;2.13;;
48241;SDS011;34041;51.812;4.622;2022-09-03T05:52:36;4.13;;;2.13;;
48241;SDS011;34041;51.812;4.622;2022-09-03T05:55:36;4.90;;;2.33;;
48241;SDS011;34041;51.812;4.622;2022-09-03T05:58:40;4.87;;;2.40;;
48241;SDS011;34041;51.812;4.622;2022-09-03T06:01:44;3.92;;;2.53;;
48241;SDS011;34041;51.812;4.622;2022-09-03T06:04:45;6.38;;;2.60;;
48241;SDS011;34041;51.812;4.622;2022-09-03T06:07:45;3.50;;;2.25;;
48241;SDS011;34041;51.812;4.622;2022-09-03T06:10:48;6.95;;;2.20;;
48241;SDS011;34041;51.812;4.622;2022-09-03T06:13:48;4.90;;;1.77;;
48241;SDS011;34041;51.812;4.622;2022-09-03T06:16:49;4.73;;;2.13;;
48241;SDS011;34041;51.812;4.622;2022-09-03T06:19:49;6.25;;;2.20;;
48241;SDS011;34041;51.812;4.622;2022-09-03T06:22:49;5.70;;;2.33;;
48241;SDS011;34041;51.812;4.622;2022-09-03T06:29:22;3.90;;;1.92;;
48241;SDS011;34041;51.812;4.622;2022-09-03T06:32:22;3.67;;;2.30;;
48241;SDS011;34041;51.812;4.622;2022-09-03T06:35:22;3.43;;;2.17;;
48241;SDS011;34041;51.812;4.622;2022-09-03T06:38:23;3.47;;;1.73;;
48241;SDS011;34041;51.812;4.622;2022-09-03T06:41:28;3.17;;;1.60;;
48241;SDS011;34041;51.812;4.622;2022-09-03T06:44:30;5.15;;;2.35;;
48241;SDS011;34041;51.812;4.622;2022-09-03T06:47:31;4.93;;;2.47;;
48241;SDS011;34041;51.812;4.622;2022-09-03T06:50:31;3.25;;;1.77;;
48241;SDS011;34041;51.812;4.622;2022-09-03T06:53:35;4.57;;;2.33;;
48241;SDS011;34041;51.812;4.622;2022-09-03T06:56:36;9.13;;;2.22;;
48241;SDS011;34041;51.812;4.622;2022-09-03T06:59:37;4.45;;;1.92;;
48241;SDS011;34041;51.812;4.622;2022-09-03T07:02:37;5.50;;;3.20;;
48241;SDS011;34041;51.812;4.622;2022-09-03T07:05:38;4.82;;;2.00;;
48241;SDS011;34041;51.812;4.622;2022-09-03T07:08:38;5.20;;;1.90;;
48241;SDS011;34041;51.812;4.622;2022-09-03T07:11:39;4.50;;;1.83;;
48241;SDS011;34041;51.812;4.622;2022-09-03T07:14:46;3.97;;;2.15;;
48241;SDS011;34041;51.812;4.622;2022-09-03T07:17:46;5.32;;;1.90;;
48241;SDS011;34041;51.812;4.622;2022-09-03T07:20:48;4.45;;;2.22;;
48241;SDS011;34041;51.812;4.622;2022-09-03T07:23:49;5.45;;;1.92;;
48241;SDS011;34041;51.812;4.622;2022-09-03T07:26:50;7.38;;;2.50;;
48241;SDS011;34041;51.812;4.622;2022-09-03T07:29:51;4.68;;;1.90;;
48241;SDS011;34041;51.812;4.622;2022-09-03T07:32:51;4.03;;;1.97;;
48241;SDS011;34041;51.812;4.622;2022-09-03T07:35:53;4.35;;;2.30;;
48241;SDS011;34041;51.812;4.622;2022-09-03T07:38:54;5.17;;;2.10;;
48241;SDS011;34041;51.812;4.622;2022-09-03T07:41:55;5.05;;;2.22;;
48241;SDS011;34041;51.812;4.622;2022-09-03T07:44:58;3.33;;;1.73;;
48241;SDS011;34041;51.812;4.622;2022-09-03T07:47:58;3.73;;;2.20;;
48241;SDS011;34041;51.812;4.622;2022-09-03T07:50:59;5.07;;;2.20;;
48241;SDS011;34041;51.812;4.622;2022-09-03T07:54:01;6.22;;;2.03;;
48241;SDS011;34041;51.812;4.622;2022-09-03T07:57:01;4.47;;;2.25;;
48241;SDS011;34041;51.812;4.622;2022-09-03T08:00:02;7.63;;;2.25;;
48241;SDS011;34041;51.812;4.622;2022-09-03T08:03:03;3.55;;;1.83;;
48241;SDS011;34041;51.812;4.622;2022-09-03T08:06:07;5.88;;;2.10;;
48241;SDS011;34041;51.812;4.622;2022-09-03T08:09:09;6.63;;;2.40;;
48241;SDS011;34041;51.812;4.622;2022-09-03T08:12:10;4.55;;;2.20;;
48241;SDS011;34041;51.812;4.622;2022-09-03T08:15:10;7.83;;;2.70;;
48241;SDS011;34041;51.812;4.622;2022-09-03T08:18:10;3.80;;;2.13;;
48241;SDS011;34041;51.812;4.622;2022-09-03T08:21:12;5.40;;;1.90;;
48241;SDS011;34041;51.812;4.622;2022-09-03T08:24:14;3.28;;;2.40;;
48241;SDS011;34041;51.812;4.622;2022-09-03T08:27:15;3.72;;;2.13;;
48241;SDS011;34041;51.812;4.622;2022-09-03T08:30:15;3.67;;;2.10;;
48241;SDS011;34041;51.812;4.622;2022-09-03T08:33:18;10.30;;;2.10;;
48241;SDS011;34041;51.812;4.622;2022-09-03T08:36:36;9.80;;;2.95;;
48241;SDS011;34041;51.812;4.622;2022-09-03T08:39:37;9.23;;;3.60;;
48241;SDS011;34041;51.812;4.622;2022-09-03T08:46:07;8.20;;;2.63;;
48241;SDS011;34041;51.812;4.622;2022-09-03T08:49:08;5.10;;;2.95;;
48241;SDS011;34041;51.812;4.622;2022-09-03T08:52:23;11.10;;;3.72;;
48241;SDS011;34041;51.812;4.622;2022-09-03T08:58:26;8.35;;;3.15;;
48241;SDS011;34041;51.812;4.622;2022-09-03T09:07:49;4.78;;;2.55;;
48241;SDS011;34041;51.812;4.622;2022-09-03T09:14:02;6.07;;;2.47;;
48241;SDS011;34041;51.812;4.622;2022-09-03T09:17:16;5.43;;;2.28;;
48241;SDS011;34041;51.812;4.622;2022-09-03T09:20:29;4.13;;;2.25;;
48241;SDS011;34041;51.812;4.622;2022-09-03T09:23:35;3.60;;;2.38;;
48241;SDS011;34041;51.812;4.622;2022-09-03T09:26:41;6.55;;;2.38;;
48241;SDS011;34041;51.812;4.622;2022-09-03T09:29:42;5.32;;;2.35;;
48241;SDS011;34041;51.812;4.622;2022-09-03T09:32:45;7.70;;;3.25;;
48241;SDS011;34041;51.812;4.622;2022-09-03T09:35:46;5.78;;;2.55;;
48241;SDS011;34041;51.812;4.622;2022-09-03T09:38:47;5.70;;;2.45;;
48241;SDS011;34041;51.812;4.622;2022-09-03T09:42:01;5.97;;;2.08;;
48241;SDS011;34041;51.812;4.622;2022-09-03T09:45:08;9.30;;;2.45;;
48241;SDS011;34041;51.812;4.622;2022-09-03T09:51:27;4.00;;;2.20;;
48241;SDS011;34041;51.812;4.622;2022-09-03T09:54:30;4.82;;;1.90;;
48241;SDS011;34041;51.812;4.622;2022-09-03T09:57:30;6.30;;;2.47;;
48241;SDS011;34041;51.812;4.622;2022-09-03T10:00:31;5.63;;;2.57;;
48241;SDS011;34041;51.812;4.622;2022-09-03T10:03:33;4.65;;;2.25;;
48241;SDS011;34041;51.812;4.622;2022-09-03T10:06:34;5.72;;;2.53;;
48241;SDS011;34041;51.812;4.622;2022-09-03T10:10:00;4.88;;;2.05;;
48241;SDS011;34041;51.812;4.622;2022-09-03T10:13:01;5.43;;;2.40;;
48241;SDS011;34041;51.812;4.622;2022-09-03T10:19:40;7.90;;;2.13;;
48241;SDS011;34041;51.812;4.622;2022-09-03T10:22:34;7.25;;;2.13;;
48241;SDS011;34041;51.812;4.622;2022-09-03T10:28:52;8.00;;;2.30;;
48241;SDS011;34041;51.812;4.622;2022-09-03T10:38:27;3.50;;;2.40;;
48241;SDS011;34041;51.812;4.622;2022-09-03T10:51:20;3.85;;;1.70;;
48241;SDS011;34041;51.812;4.622;2022-09-03T10:54:25;4.88;;;2.10;;
48241;SDS011;34041;51.812;4.622;2022-09-03T11:00:38;4.07;;;2.35;;
48241;SDS011;34041;51.812;4.622;2022-09-03T11:07:11;4.70;;;1.75;;
48241;SDS011;34041;51.812;4.622;2022-09-03T11:10:20;3.28;;;1.92;;
48241;SDS011;34041;51.812;4.622;2022-09-03T11:13:27;8.75;;;2.47;;
48241;SDS011;34041;51.812;4.622;2022-09-03T11:16:32;6.40;;;2.75;;
48241;SDS011;34041;51.812;4.622;2022-09-03T11:19:40;4.63;;;2.35;;
48241;SDS011;34041;51.812;4.622;2022-09-03T11:22:45;3.90;;;2.35;;
48241;SDS011;34041;51.812;4.622;2022-09-03T11:25:48;5.45;;;2.53;;
48241;SDS011;34041;51.812;4.622;2022-09-03T11:32:00;5.28;;;1.95;;
48241;SDS011;34041;51.812;4.622;2022-09-03T11:35:01;5.68;;;2.15;;
48241;SDS011;34041;51.812;4.622;2022-09-03T11:41:33;4.28;;;2.13;;
48241;SDS011;34041;51.812;4.622;2022-09-03T11:44:41;3.95;;;2.20;;
48241;SDS011;34041;51.812;4.622;2022-09-03T11:47:42;3.67;;;2.13;;
48241;SDS011;34041;51.812;4.622;2022-09-03T11:50:50;6.15;;;2.70;;
48241;SDS011;34041;51.812;4.622;2022-09-03T12:00:14;5.70;;;2.03;;
48241;SDS011;34041;51.812;4.622;2022-09-03T12:03:27;7.15;;;2.60;;
48241;SDS011;34041;51.812;4.622;2022-09-03T12:10:11;7.40;;;2.53;;
48241;SDS011;34041;51.812;4.622;2022-09-03T12:13:14;4.22;;;2.08;;
48241;SDS011;34041;51.812;4.622;2022-09-03T12:17:00;5.85;;;2.33;;
48241;SDS011;34041;51.812;4.622;2022-09-03T12:19:44;4.40;;;2.35;;
48241;SDS011;34041;51.812;4.622;2022-09-03T12:22:46;7.47;;;2.80;;
48241;SDS011;34041;51.812;4.622;2022-09-03T12:25:46;3.27;;;2.13;;
48241;SDS011;34041;51.812;4.622;2022-09-03T12:28:48;3.53;;;2.10;;
48241;SDS011;34041;51.812;4.622;2022-09-03T12:31:49;7.05;;;2.00;;
48241;SDS011;34041;51.812;4.622;2022-09-03T12:34:50;4.50;;;1.75;;
48241;SDS011;34041;51.812;4.622;2022-09-03T12:37:51;3.78;;;1.83;;
48241;SDS011;34041;51.812;4.622;2022-09-03T12:40:53;5.60;;;2.35;;
48241;SDS011;34041;51.812;4.622;2022-09-03T12:43:55;5.55;;;1.67;;
48241;SDS011;34041;51.812;4.622;2022-09-03T12:47:05;2.95;;;1.98;;
48241;SDS011;34041;51.812;4.622;2022-09-03T12:53:07;6.03;;;2.00;;
48241;SDS011;34041;51.812;4.622;2022-09-03T12:56:08;4.43;;;2.10;;
48241;SDS011;34041;51.812;4.622;2022-09-03T12:59:13;4.28;;;1.98;;
48241;SDS011;34041;51.812;4.622;2022-09-03T13:02:17;4.18;;;1.95;;
48241;SDS011;34041;51.812;4.622;2022-09-03T13:05:20;9.03;;;2.30;;
48241;SDS011;34041;51.812;4.622;2022-09-03T13:08:24;3.95;;;2.30;;
48241;SDS011;34041;51.812;4.622;2022-09-03T13:11:25;3.92;;;2.22;;
48241;SDS011;34041;51.812;4.622;2022-09-03T13:14:26;4.63;;;2.17;;
48241;SDS011;34041;51.812;4.622;2022-09-03T13:20:34;3.27;;;1.90;;
48241;SDS011;34041;51.812;4.622;2022-09-03T13:23:39;4.18;;;2.20;;
48241;SDS011;34041;51.812;4.622;2022-09-03T13:30:08;7.22;;;2.42;;
48241;SDS011;34041;51.812;4.622;2022-09-03T13:34:14;3.70;;;2.30;;
48241;SDS011;34041;51.812;4.622;2022-09-03T13:40:11;5.53;;;2.10;;
48241;SDS011;34041;51.812;4.622;2022-09-03T13:49:58;2.80;;;2.17;;
48241;SDS011;34041;51.812;4.622;2022-09-03T13:56:59;2.88;;;1.48;;
48241;SDS011;34041;51.812;4.622;2022-09-03T14:18:58;3.53;;;1.55;;
48241;SDS011;34041;51.812;4.622;2022-09-03T14:22:05;5.50;;;1.60;;
48241;SDS011;34041;51.812;4.622;2022-09-03T14:25:15;2.97;;;1.55;;
48241;SDS011;34041;51.812;4.622;2022-09-03T14:28:28;4.70;;;1.85;;
48241;SDS011;34041;51.812;4.622;2022-09-03T14:38:06;7.20;;;2.67;;
48241;SDS011;34041;51.812;4.622;2022-09-03T14:50:59;4.05;;;1.73;;
48241;SDS011;34041;51.812;4.622;2022-09-03T14:54:37;3.78;;;1.38;;
48241;SDS011;34041;51.812;4.622;2022-09-03T15:06:52;5.10;;;2.15;;
48241;SDS011;34041;51.812;4.622;2022-09-03T15:09:58;5.03;;;1.77;;
48241;SDS011;34041;51.812;4.622;2022-09-03T15:16:19;3.58;;;1.83;;
48241;SDS011;34041;51.812;4.622;2022-09-03T15:35:09;4.93;;;2.93;;
48241;SDS011;34041;51.812;4.622;2022-09-03T15:41:16;5.97;;;1.85;;
48241;SDS011;34041;51.812;4.622;2022-09-03T15:44:20;7.75;;;3.72;;
48241;SDS011;34041;51.812;4.622;2022-09-03T15:48:04;4.00;;;2.25;;
48241;SDS011;34041;51.812;4.622;2022-09-03T15:50:49;4.47;;;1.90;;
48241;SDS011;34041;51.812;4.622;2022-09-03T15:53:59;3.90;;;1.80;;
48241;SDS011;34041;51.812;4.622;2022-09-03T15:57:06;5.18;;;2.47;;
48241;SDS011;34041;51.812;4.622;2022-09-03T16:00:10;4.85;;;1.77;;
48241;SDS011;34041;51.812;4.622;2022-09-03T16:03:11;2.58;;;1.85;;
48241;SDS011;34041;51.812;4.622;2022-09-03T16:15:42;4.85;;;2.38;;
48241;SDS011;34041;51.812;4.622;2022-09-03T16:18:54;4.68;;;2.13;;
48241;SDS011;34041;51.812;4.622;2022-09-03T16:21:59;7.25;;;2.25;;
48241;SDS011;34041;51.812;4.622;2022-09-03T16:25:15;6.28;;;1.73;;
48241;SDS011;34041;51.812;4.622;2022-09-03T16:28:20;2.90;;;1.80;;
48241;SDS011;34041;51.812;4.622;2022-09-03T16:31:30;4.97;;;2.50;;
48241;SDS011;34041;51.812;4.622;2022-09-03T16:34:38;5.13;;;2.95;;
48241;SDS011;34041;51.812;4.622;2022-09-03T16:37:45;6.50;;;2.20;;
48241;SDS011;34041;51.812;4.622;2022-09-03T16:47:36;3.67;;;1.92;;
48241;SDS011;34041;51.812;4.622;2022-09-03T16:53:55;5.65;;;2.33;;
48241;SDS011;34041;51.812;4.622;2022-09-03T17:00:15;6.97;;;2.23;;
48241;SDS011;34041;51.812;4.622;2022-09-03T17:06:38;3.85;;;2.03;;
48241;SDS011;34041;51.812;4.622;2022-09-03T17:13:06;3.00;;;1.90;;
48241;SDS011;34041;51.812;4.622;2022-09-03T17:16:15;5.40;;;2.22;;
48241;SDS011;34041;51.812;4.622;2022-09-03T17:25:39;4.10;;;1.70;;
48241;SDS011;34041;51.812;4.622;2022-09-03T17:32:14;3.75;;;1.80;;
48241;SDS011;34041;51.812;4.622;2022-09-03T17:35:46;5.15;;;2.75;;
48241;SDS011;34041;51.812;4.622;2022-09-03T17:41:49;4.50;;;1.70;;
48241;SDS011;34041;51.812;4.622;2022-09-03T17:45:05;4.18;;;1.92;;
48241;SDS011;34041;51.812;4.622;2022-09-03T17:48:21;2.33;;;1.70;;
48241;SDS011;34041;51.812;4.622;2022-09-03T17:51:40;6.60;;;2.53;;
48241;SDS011;34041;51.812;4.622;2022-09-03T17:54:43;3.53;;;1.98;;
48241;SDS011;34041;51.812;4.622;2022-09-03T17:57:45;4.18;;;2.17;;
48241;SDS011;34041;51.812;4.622;2022-09-03T18:00:55;2.90;;;1.90;;
48241;SDS011;34041;51.812;4.622;2022-09-03T18:07:28;3.35;;;2.10;;
48241;SDS011;34041;51.812;4.622;2022-09-03T18:14:12;5.45;;;2.63;;
48241;SDS011;34041;51.812;4.622;2022-09-03T18:17:21;3.38;;;1.73;;
48241;SDS011;34041;51.812;4.622;2022-09-03T18:20:26;9.93;;;2.15;;
48241;SDS011;34041;51.812;4.622;2022-09-03T18:27:21;4.95;;;2.10;;
48241;SDS011;34041;51.812;4.622;2022-09-03T18:30:41;2.75;;;1.65;;
48241;SDS011;34041;51.812;4.622;2022-09-03T18:34:01;4.47;;;2.33;;
48241;SDS011;34041;51.812;4.622;2022-09-03T18:37:21;4.72;;;1.83;;
48241;SDS011;34041;51.812;4.622;2022-09-03T18:51:18;3.65;;;2.28;;
48241;SDS011;34041;51.812;4.622;2022-09-03T19:02:01;6.82;;;2.58;;
48241;SDS011;34041;51.812;4.622;2022-09-03T19:08:52;4.05;;;2.80;;
48241;SDS011;34041;51.812;4.622;2022-09-03T19:22:38;4.80;;;2.05;;
48241;SDS011;34041;51.812;4.622;2022-09-03T19:26:08;3.00;;;2.10;;
48241;SDS011;34041;51.812;4.622;2022-09-03T19:29:50;3.35;;;2.08;;
48241;SDS011;34041;51.812;4.622;2022-09-03T19:33:14;3.75;;;2.65;;
48241;SDS011;34041;51.812;4.622;2022-09-03T19:36:49;4.03;;;2.10;;
48241;SDS011;34041;51.812;4.622;2022-09-03T19:43:59;4.13;;;1.65;;
48241;SDS011;34041;51.812;4.622;2022-09-03T19:47:29;6.28;;;2.35;;
48241;SDS011;34041;51.812;4.622;2022-09-03T19:50:58;4.47;;;1.90;;
48241;SDS011;34041;51.812;4.622;2022-09-03T19:54:20;2.70;;;1.83;;
48241;SDS011;34041;51.812;4.622;2022-09-03T19:57:40;3.13;;;2.03;;
48241;SDS011;34041;51.812;4.622;2022-09-03T20:01:01;3.70;;;2.83;;
48241;SDS011;34041;51.812;4.622;2022-09-03T20:04:26;4.40;;;1.67;;
48241;SDS011;34041;51.812;4.622;2022-09-03T20:07:48;3.53;;;2.22;;
48241;SDS011;34041;51.812;4.622;2022-09-03T20:11:10;3.80;;;2.28;;
48241;SDS011;34041;51.812;4.622;2022-09-03T20:14:15;3.40;;;2.03;;
48241;SDS011;34041;51.812;4.622;2022-09-03T20:40:07;3.47;;;2.60;;
48241;SDS011;34041;51.812;4.622;2022-09-03T20:52:30;4.47;;;3.38;;
48241;SDS011;34041;51.812;4.622;2022-09-03T20:55:36;3.53;;;2.95;;
48241;SDS011;34041;51.812;4.622;2022-09-03T20:58:52;4.15;;;3.30;;
48241;SDS011;34041;51.812;4.622;2022-09-03T21:02:00;4.68;;;3.78;;
48241;SDS011;34041;51.812;4.622;2022-09-03T21:05:08;5.00;;;4.35;;
48241;SDS011;34041;51.812;4.622;2022-09-03T21:08:15;4.38;;;3.70;;
48241;SDS011;34041;51.812;4.622;2022-09-03T21:11:20;4.18;;;3.78;;
48241;SDS011;34041;51.812;4.622;2022-09-03T21:15:03;5.05;;;3.95;;
48241;SDS011;34041;51.812;4.622;2022-09-03T21:17:56;3.90;;;3.50;;
48241;SDS011;34041;51.812;4.622;2022-09-03T21:21:05;6.43;;;3.67;;
48241;SDS011;34041;51.812;4.622;2022-09-03T21:27:14;6.05;;;3.85;;
48241;SDS011;34041;51.812;4.622;2022-09-03T21:30:16;4.97;;;3.40;;
48241;SDS011;34041;51.812;4.622;2022-09-03T21:33:21;5.70;;;3.60;;
48241;SDS011;34041;51.812;4.622;2022-09-03T21:36:29;4.13;;;3.70;;
48241;SDS011;34041;51.812;4.622;2022-09-03T21:39:31;7.70;;;3.95;;
48241;SDS011;34041;51.812;4.622;2022-09-03T21:48:37;4.63;;;3.47;;
48241;SDS011;34041;51.812;4.622;2022-09-03T21:54:58;4.95;;;3.38;;
48241;SDS011;34041;51.812;4.622;2022-09-03T22:01:02;4.85;;;4.07;;
48241;SDS011;34041;51.812;4.622;2022-09-03T22:13:45;4.05;;;3.58;;
48241;SDS011;34041;51.812;4.622;2022-09-03T22:17:34;5.13;;;3.75;;
48241;SDS011;34041;51.812;4.622;2022-09-03T22:23:16;4.40;;;3.58;;
48241;SDS011;34041;51.812;4.622;2022-09-03T22:26:22;5.03;;;3.20;;
48241;SDS011;34041;51.812;4.622;2022-09-03T22:35:40;4.72;;;3.72;;
48241;SDS011;34041;51.812;4.622;2022-09-03T22:45:22;6.20;;;3.45;;
48241;SDS011;34041;51.812;4.622;2022-09-03T22:48:42;5.15;;;4.22;;
48241;SDS011;34041;51.812;4.622;2022-09-03T22:51:53;6.25;;;3.85;;
48241;SDS011;34041;51.812;4.622;2022-09-03T22:58:01;4.50;;;4.07;;
48241;SDS011;34041;51.812;4.622;2022-09-03T23:01:08;5.13;;;3.38;;
48241;SDS011;34041;51.812;4.622;2022-09-03T23:10:33;4.82;;;3.90;;
48241;SDS011;34041;51.812;4.622;2022-09-03T23:13:39;5.50;;;4.50;;
48241;SDS011;34041;51.812;4.622;2022-09-03T23:16:57;6.22;;;4.05;;
48241;SDS011;34041;51.812;4.622;2022-09-03T23:23:19;4.93;;;4.13;;
48241;SDS011;34041;51.812;4.622;2022-09-03T23:29:54;4.47;;;4.03;;
48241;SDS011;34041;51.812;4.622;2022-09-03T23:32:56;4.78;;;4.18;;
48241;SDS011;34041;51.812;4.622;2022-09-03T23:36:04;4.55;;;4.15;;
48241;SDS011;34041;51.812;4.622;2022-09-03T23:51:51;7.43;;;4.72;;
48241;SDS011;34041;51.812;4.622;2022-09-03T23:54:57;7.90;;;4.40;;
48241;SDS011;34041;51.812;4.622;2022-09-03T23:58:09;5.13;;;3.75;;
